sensor_id;sensor_type;location;lat;lon;timestamp;P1;durP1;ratioP1;P2;durP2;ratioP2
42478;SDS011;28110;47.080;9.476;2023-05-07T00:01:34;1.40;;;1.00;;
42478;SDS011;28110;47.080;9.476;2023-05-07T00:04:00;1.45;;;0.75;;
42478;SDS011;28110;47.080;9.476;2023-05-07T00:06:25;1.23;;;0.60;;
42478;SDS011;28110;47.080;9.476;2023-05-07T00:08:53;1.55;;;0.70;;
42478;SDS011;28110;47.080;9.476;2023-05-07T00:11:19;0.88;;;0.82;;
42478;SDS011;28110;47.080;9.476;2023-05-07T00:13:45;2.93;;;0.70;;
42478;SDS011;28110;47.080;9.476;2023-05-07T00:16:11;1.65;;;0.70;;
42478;SDS011;28110;47.080;9.476;2023-05-07T00:18:37;1.10;;;0.83;;
42478;SDS011;28110;47.080;9.476;2023-05-07T00:21:02;1.95;;;0.90;;
42478;SDS011;28110;47.080;9.476;2023-05-07T00:23:28;2.55;;;0.75;;
42478;SDS011;28110;47.080;9.476;2023-05-07T00:25:53;3.00;;;1.00;;
42478;SDS011;28110;47.080;9.476;2023-05-07T00:28:19;3.20;;;0.90;;
42478;SDS011;28110;47.080;9.476;2023-05-07T00:30:45;1.73;;;0.80;;
42478;SDS011;28110;47.080;9.476;2023-05-07T00:33:10;1.73;;;0.80;;
42478;SDS011;28110;47.080;9.476;2023-05-07T00:35:36;2.00;;;0.90;;
42478;SDS011;28110;47.080;9.476;2023-05-07T00:38:01;1.33;;;0.70;;
42478;SDS011;28110;47.080;9.476;2023-05-07T00:40:27;1.53;;;0.70;;
42478;SDS011;28110;47.080;9.476;2023-05-07T00:42:52;2.65;;;0.90;;
42478;SDS011;28110;47.080;9.476;2023-05-07T00:45:21;1.58;;;0.90;;
42478;SDS011;28110;47.080;9.476;2023-05-07T00:47:50;2.35;;;0.70;;
42478;SDS011;28110;47.080;9.476;2023-05-07T00:50:16;1.10;;;0.90;;
42478;SDS011;28110;47.080;9.476;2023-05-07T00:52:44;2.15;;;0.90;;
42478;SDS011;28110;47.080;9.476;2023-05-07T00:55:09;1.50;;;0.90;;
42478;SDS011;28110;47.080;9.476;2023-05-07T00:57:36;1.57;;;1.03;;
42478;SDS011;28110;47.080;9.476;2023-05-07T01:00:03;3.03;;;0.90;;
42478;SDS011;28110;47.080;9.476;2023-05-07T01:02:29;1.42;;;0.80;;
42478;SDS011;28110;47.080;9.476;2023-05-07T01:04:55;2.03;;;1.00;;
42478;SDS011;28110;47.080;9.476;2023-05-07T01:07:21;2.80;;;0.90;;
42478;SDS011;28110;47.080;9.476;2023-05-07T01:09:48;1.45;;;0.80;;
42478;SDS011;28110;47.080;9.476;2023-05-07T01:12:13;1.52;;;0.60;;
42478;SDS011;28110;47.080;9.476;2023-05-07T01:14:40;3.90;;;0.80;;
42478;SDS011;28110;47.080;9.476;2023-05-07T01:17:05;1.38;;;0.80;;
42478;SDS011;28110;47.080;9.476;2023-05-07T01:19:31;2.65;;;0.70;;
42478;SDS011;28110;47.080;9.476;2023-05-07T01:22:00;2.20;;;0.90;;
42478;SDS011;28110;47.080;9.476;2023-05-07T01:24:29;1.13;;;0.77;;
42478;SDS011;28110;47.080;9.476;2023-05-07T01:26:56;2.30;;;0.93;;
42478;SDS011;28110;47.080;9.476;2023-05-07T01:29:22;4.50;;;0.70;;
42478;SDS011;28110;47.080;9.476;2023-05-07T01:31:47;1.07;;;0.70;;
42478;SDS011;28110;47.080;9.476;2023-05-07T01:34:15;3.65;;;0.68;;
42478;SDS011;28110;47.080;9.476;2023-05-07T01:36:43;2.20;;;0.80;;
42478;SDS011;28110;47.080;9.476;2023-05-07T01:39:09;1.83;;;0.80;;
42478;SDS011;28110;47.080;9.476;2023-05-07T01:41:35;1.45;;;0.77;;
42478;SDS011;28110;47.080;9.476;2023-05-07T01:44:02;2.77;;;0.87;;
42478;SDS011;28110;47.080;9.476;2023-05-07T01:46:29;0.90;;;0.60;;
42478;SDS011;28110;47.080;9.476;2023-05-07T01:48:56;2.42;;;0.70;;
42478;SDS011;28110;47.080;9.476;2023-05-07T01:51:21;1.90;;;0.90;;
42478;SDS011;28110;47.080;9.476;2023-05-07T01:53:47;2.10;;;0.90;;
42478;SDS011;28110;47.080;9.476;2023-05-07T01:56:16;3.53;;;0.70;;
42478;SDS011;28110;47.080;9.476;2023-05-07T01:58:43;1.10;;;0.70;;
42478;SDS011;28110;47.080;9.476;2023-05-07T02:01:09;1.58;;;0.70;;
42478;SDS011;28110;47.080;9.476;2023-05-07T02:03:35;1.05;;;0.70;;
42478;SDS011;28110;47.080;9.476;2023-05-07T02:06:00;1.20;;;0.80;;
42478;SDS011;28110;47.080;9.476;2023-05-07T02:08:26;2.30;;;0.87;;
42478;SDS011;28110;47.080;9.476;2023-05-07T02:10:52;3.50;;;0.75;;
42478;SDS011;28110;47.080;9.476;2023-05-07T02:13:18;2.45;;;0.85;;
42478;SDS011;28110;47.080;9.476;2023-05-07T02:15:44;1.33;;;0.70;;
42478;SDS011;28110;47.080;9.476;2023-05-07T02:18:14;1.95;;;0.77;;
42478;SDS011;28110;47.080;9.476;2023-05-07T02:20:41;3.55;;;0.82;;
42478;SDS011;28110;47.080;9.476;2023-05-07T02:23:06;1.00;;;0.70;;
42478;SDS011;28110;47.080;9.476;2023-05-07T02:25:32;1.08;;;0.75;;
42478;SDS011;28110;47.080;9.476;2023-05-07T02:27:57;1.13;;;0.70;;
42478;SDS011;28110;47.080;9.476;2023-05-07T02:30:24;3.80;;;0.70;;
42478;SDS011;28110;47.080;9.476;2023-05-07T02:32:50;1.38;;;0.70;;
42478;SDS011;28110;47.080;9.476;2023-05-07T02:35:16;1.55;;;0.75;;
42478;SDS011;28110;47.080;9.476;2023-05-07T02:37:42;1.63;;;0.70;;
42478;SDS011;28110;47.080;9.476;2023-05-07T02:40:07;3.50;;;0.80;;
42478;SDS011;28110;47.080;9.476;2023-05-07T02:42:33;2.33;;;0.75;;
42478;SDS011;28110;47.080;9.476;2023-05-07T02:44:59;3.30;;;0.80;;
42478;SDS011;28110;47.080;9.476;2023-05-07T02:47:25;0.93;;;0.60;;
42478;SDS011;28110;47.080;9.476;2023-05-07T02:49:53;1.70;;;0.80;;
42478;SDS011;28110;47.080;9.476;2023-05-07T02:52:19;1.45;;;0.70;;
42478;SDS011;28110;47.080;9.476;2023-05-07T02:54:44;0.70;;;0.60;;
42478;SDS011;28110;47.080;9.476;2023-05-07T02:57:10;2.40;;;0.80;;
42478;SDS011;28110;47.080;9.476;2023-05-07T02:59:35;2.07;;;0.70;;
42478;SDS011;28110;47.080;9.476;2023-05-07T03:02:01;1.10;;;0.60;;
42478;SDS011;28110;47.080;9.476;2023-05-07T03:04:27;1.73;;;0.60;;
42478;SDS011;28110;47.080;9.476;2023-05-07T03:06:52;1.10;;;0.70;;
42478;SDS011;28110;47.080;9.476;2023-05-07T03:09:17;3.50;;;1.03;;
42478;SDS011;28110;47.080;9.476;2023-05-07T03:11:43;1.77;;;0.83;;
42478;SDS011;28110;47.080;9.476;2023-05-07T03:14:09;1.17;;;0.75;;
42478;SDS011;28110;47.080;9.476;2023-05-07T03:16:34;1.23;;;0.60;;
42478;SDS011;28110;47.080;9.476;2023-05-07T03:19:00;1.10;;;0.70;;
42478;SDS011;28110;47.080;9.476;2023-05-07T03:21:26;2.13;;;0.73;;
42478;SDS011;28110;47.080;9.476;2023-05-07T03:23:51;1.67;;;0.70;;
42478;SDS011;28110;47.080;9.476;2023-05-07T03:26:17;1.10;;;0.73;;
42478;SDS011;28110;47.080;9.476;2023-05-07T03:28:42;1.27;;;0.70;;
42478;SDS011;28110;47.080;9.476;2023-05-07T03:31:08;3.00;;;1.00;;
42478;SDS011;28110;47.080;9.476;2023-05-07T03:33:34;1.97;;;0.93;;
42478;SDS011;28110;47.080;9.476;2023-05-07T03:36:00;1.20;;;0.70;;
42478;SDS011;28110;47.080;9.476;2023-05-07T03:38:26;1.88;;;0.90;;
42478;SDS011;28110;47.080;9.476;2023-05-07T03:40:51;5.23;;;0.80;;
42478;SDS011;28110;47.080;9.476;2023-05-07T03:43:17;2.07;;;1.00;;
42478;SDS011;28110;47.080;9.476;2023-05-07T03:45:42;0.80;;;0.55;;
42478;SDS011;28110;47.080;9.476;2023-05-07T03:48:08;5.10;;;0.63;;
42478;SDS011;28110;47.080;9.476;2023-05-07T03:50:33;1.13;;;0.70;;
42478;SDS011;28110;47.080;9.476;2023-05-07T03:52:59;1.67;;;0.77;;
42478;SDS011;28110;47.080;9.476;2023-05-07T03:55:24;1.23;;;0.63;;
42478;SDS011;28110;47.080;9.476;2023-05-07T03:57:50;0.70;;;0.70;;
42478;SDS011;28110;47.080;9.476;2023-05-07T04:00:16;1.45;;;0.70;;
42478;SDS011;28110;47.080;9.476;2023-05-07T04:02:41;2.10;;;0.70;;
42478;SDS011;28110;47.080;9.476;2023-05-07T04:05:07;3.00;;;0.80;;
42478;SDS011;28110;47.080;9.476;2023-05-07T04:07:33;1.83;;;0.90;;
42478;SDS011;28110;47.080;9.476;2023-05-07T04:09:58;1.70;;;0.60;;
42478;SDS011;28110;47.080;9.476;2023-05-07T04:12:24;1.25;;;0.63;;
42478;SDS011;28110;47.080;9.476;2023-05-07T04:14:49;1.30;;;0.77;;
42478;SDS011;28110;47.080;9.476;2023-05-07T04:17:15;1.10;;;0.70;;
42478;SDS011;28110;47.080;9.476;2023-05-07T04:19:40;3.25;;;0.85;;
42478;SDS011;28110;47.080;9.476;2023-05-07T04:22:10;1.98;;;0.60;;
42478;SDS011;28110;47.080;9.476;2023-05-07T04:24:36;1.23;;;0.75;;
42478;SDS011;28110;47.080;9.476;2023-05-07T04:27:01;1.23;;;0.60;;
42478;SDS011;28110;47.080;9.476;2023-05-07T04:29:27;1.40;;;0.60;;
42478;SDS011;28110;47.080;9.476;2023-05-07T04:31:53;3.45;;;0.90;;
42478;SDS011;28110;47.080;9.476;2023-05-07T04:34:21;1.77;;;0.80;;
42478;SDS011;28110;47.080;9.476;2023-05-07T04:36:46;2.05;;;0.88;;
42478;SDS011;28110;47.080;9.476;2023-05-07T04:39:13;1.42;;;0.90;;
42478;SDS011;28110;47.080;9.476;2023-05-07T04:41:38;0.82;;;0.60;;
42478;SDS011;28110;47.080;9.476;2023-05-07T04:44:04;1.93;;;0.70;;
42478;SDS011;28110;47.080;9.476;2023-05-07T04:46:30;3.42;;;1.10;;
42478;SDS011;28110;47.080;9.476;2023-05-07T04:48:55;1.17;;;0.70;;
42478;SDS011;28110;47.080;9.476;2023-05-07T04:51:21;1.33;;;0.80;;
42478;SDS011;28110;47.080;9.476;2023-05-07T04:53:47;2.35;;;1.00;;
42478;SDS011;28110;47.080;9.476;2023-05-07T04:56:12;1.40;;;0.65;;
42478;SDS011;28110;47.080;9.476;2023-05-07T04:58:38;2.03;;;1.20;;
42478;SDS011;28110;47.080;9.476;2023-05-07T05:01:03;1.47;;;0.77;;
42478;SDS011;28110;47.080;9.476;2023-05-07T05:03:30;0.93;;;0.63;;
42478;SDS011;28110;47.080;9.476;2023-05-07T05:05:55;3.63;;;0.60;;
42478;SDS011;28110;47.080;9.476;2023-05-07T05:08:24;2.37;;;0.70;;
42478;SDS011;28110;47.080;9.476;2023-05-07T05:10:49;0.98;;;0.70;;
42478;SDS011;28110;47.080;9.476;2023-05-07T05:13:15;2.28;;;0.77;;
42478;SDS011;28110;47.080;9.476;2023-05-07T05:15:41;5.15;;;1.33;;
42478;SDS011;28110;47.080;9.476;2023-05-07T05:18:06;1.63;;;0.70;;
42478;SDS011;28110;47.080;9.476;2023-05-07T05:20:32;2.25;;;1.10;;
42478;SDS011;28110;47.080;9.476;2023-05-07T05:22:58;3.83;;;1.00;;
42478;SDS011;28110;47.080;9.476;2023-05-07T05:25:23;3.43;;;1.07;;
42478;SDS011;28110;47.080;9.476;2023-05-07T05:27:49;2.58;;;0.80;;
42478;SDS011;28110;47.080;9.476;2023-05-07T05:30:14;2.10;;;0.90;;
42478;SDS011;28110;47.080;9.476;2023-05-07T05:32:40;1.27;;;0.60;;
42478;SDS011;28110;47.080;9.476;2023-05-07T05:35:06;0.93;;;0.70;;
42478;SDS011;28110;47.080;9.476;2023-05-07T05:37:31;1.92;;;0.80;;
42478;SDS011;28110;47.080;9.476;2023-05-07T05:39:57;0.83;;;0.50;;
42478;SDS011;28110;47.080;9.476;2023-05-07T05:42:23;0.77;;;0.50;;
42478;SDS011;28110;47.080;9.476;2023-05-07T05:44:48;1.63;;;0.63;;
42478;SDS011;28110;47.080;9.476;2023-05-07T05:47:14;8.03;;;0.80;;
42478;SDS011;28110;47.080;9.476;2023-05-07T05:49:39;2.67;;;0.70;;
42478;SDS011;28110;47.080;9.476;2023-05-07T05:52:05;2.45;;;0.70;;
42478;SDS011;28110;47.080;9.476;2023-05-07T05:54:30;3.13;;;0.70;;
42478;SDS011;28110;47.080;9.476;2023-05-07T05:56:56;1.40;;;0.70;;
42478;SDS011;28110;47.080;9.476;2023-05-07T05:59:22;1.25;;;0.80;;
42478;SDS011;28110;47.080;9.476;2023-05-07T06:01:47;1.00;;;0.70;;
42478;SDS011;28110;47.080;9.476;2023-05-07T06:04:13;1.30;;;0.50;;
42478;SDS011;28110;47.080;9.476;2023-05-07T06:06:38;1.40;;;0.67;;
42478;SDS011;28110;47.080;9.476;2023-05-07T06:09:04;1.47;;;0.60;;
42478;SDS011;28110;47.080;9.476;2023-05-07T06:11:30;2.45;;;0.60;;
42478;SDS011;28110;47.080;9.476;2023-05-07T06:13:56;2.25;;;0.70;;
42478;SDS011;28110;47.080;9.476;2023-05-07T06:16:22;2.78;;;0.68;;
42478;SDS011;28110;47.080;9.476;2023-05-07T06:18:47;1.43;;;0.90;;
42478;SDS011;28110;47.080;9.476;2023-05-07T06:21:13;1.33;;;0.70;;
42478;SDS011;28110;47.080;9.476;2023-05-07T06:23:40;1.98;;;0.63;;
42478;SDS011;28110;47.080;9.476;2023-05-07T06:26:06;0.80;;;0.70;;
42478;SDS011;28110;47.080;9.476;2023-05-07T06:28:31;2.35;;;0.88;;
42478;SDS011;28110;47.080;9.476;2023-05-07T06:33:47;3.08;;;1.20;;
42478;SDS011;28110;47.080;9.476;2023-05-07T06:36:14;1.55;;;0.80;;
42478;SDS011;28110;47.080;9.476;2023-05-07T06:38:39;2.10;;;0.97;;
42478;SDS011;28110;47.080;9.476;2023-05-07T06:41:05;2.88;;;0.93;;
42478;SDS011;28110;47.080;9.476;2023-05-07T06:43:31;1.43;;;0.80;;
42478;SDS011;28110;47.080;9.476;2023-05-07T06:45:56;1.00;;;0.90;;
42478;SDS011;28110;47.080;9.476;2023-05-07T06:48:22;2.57;;;0.77;;
42478;SDS011;28110;47.080;9.476;2023-05-07T06:50:48;1.58;;;1.00;;
42478;SDS011;28110;47.080;9.476;2023-05-07T06:53:13;2.33;;;0.83;;
42478;SDS011;28110;47.080;9.476;2023-05-07T06:55:39;2.00;;;1.10;;
42478;SDS011;28110;47.080;9.476;2023-05-07T06:58:04;3.33;;;1.00;;
42478;SDS011;28110;47.080;9.476;2023-05-07T07:00:30;3.38;;;1.10;;
42478;SDS011;28110;47.080;9.476;2023-05-07T07:02:56;3.17;;;1.13;;
42478;SDS011;28110;47.080;9.476;2023-05-07T07:05:22;2.13;;;0.80;;
42478;SDS011;28110;47.080;9.476;2023-05-07T07:07:47;1.83;;;0.90;;
42478;SDS011;28110;47.080;9.476;2023-05-07T07:10:17;1.90;;;0.90;;
42478;SDS011;28110;47.080;9.476;2023-05-07T07:12:44;1.33;;;0.80;;
42478;SDS011;28110;47.080;9.476;2023-05-07T07:15:10;1.42;;;0.82;;
42478;SDS011;28110;47.080;9.476;2023-05-07T07:17:36;1.35;;;1.00;;
42478;SDS011;28110;47.080;9.476;2023-05-07T07:20:01;1.73;;;1.15;;
42478;SDS011;28110;47.080;9.476;2023-05-07T07:22:27;2.17;;;1.00;;
42478;SDS011;28110;47.080;9.476;2023-05-07T07:24:53;3.75;;;1.50;;
42478;SDS011;28110;47.080;9.476;2023-05-07T07:27:19;2.90;;;1.33;;
42478;SDS011;28110;47.080;9.476;2023-05-07T07:29:45;2.33;;;1.00;;
42478;SDS011;28110;47.080;9.476;2023-05-07T07:32:10;2.50;;;2.08;;
42478;SDS011;28110;47.080;9.476;2023-05-07T07:34:36;1.17;;;1.05;;
42478;SDS011;28110;47.080;9.476;2023-05-07T07:37:01;1.83;;;1.00;;
42478;SDS011;28110;47.080;9.476;2023-05-07T07:39:33;4.72;;;1.30;;
42478;SDS011;28110;47.080;9.476;2023-05-07T07:41:59;4.70;;;1.00;;
42478;SDS011;28110;47.080;9.476;2023-05-07T07:44:25;1.47;;;1.07;;
42478;SDS011;28110;47.080;9.476;2023-05-07T07:46:52;0.88;;;0.88;;
42478;SDS011;28110;47.080;9.476;2023-05-07T07:49:17;1.67;;;1.10;;
42478;SDS011;28110;47.080;9.476;2023-05-07T07:51:43;1.65;;;1.15;;
42478;SDS011;28110;47.080;9.476;2023-05-07T07:54:08;3.07;;;1.00;;
42478;SDS011;28110;47.080;9.476;2023-05-07T07:56:34;2.65;;;0.90;;
42478;SDS011;28110;47.080;9.476;2023-05-07T07:59:00;1.27;;;0.73;;
42478;SDS011;28110;47.080;9.476;2023-05-07T08:01:25;1.88;;;0.93;;
42478;SDS011;28110;47.080;9.476;2023-05-07T08:03:51;3.67;;;0.90;;
42478;SDS011;28110;47.080;9.476;2023-05-07T08:06:17;2.35;;;0.80;;
42478;SDS011;28110;47.080;9.476;2023-05-07T08:08:43;1.47;;;0.87;;
42478;SDS011;28110;47.080;9.476;2023-05-07T08:11:08;3.17;;;0.82;;
42478;SDS011;28110;47.080;9.476;2023-05-07T08:13:35;2.33;;;0.88;;
42478;SDS011;28110;47.080;9.476;2023-05-07T08:16:01;1.33;;;0.93;;
42478;SDS011;28110;47.080;9.476;2023-05-07T08:18:26;1.60;;;0.88;;
42478;SDS011;28110;47.080;9.476;2023-05-07T08:20:53;1.98;;;0.90;;
42478;SDS011;28110;47.080;9.476;2023-05-07T08:23:19;2.33;;;0.90;;
42478;SDS011;28110;47.080;9.476;2023-05-07T08:25:45;1.02;;;0.80;;
42478;SDS011;28110;47.080;9.476;2023-05-07T08:28:11;3.90;;;1.13;;
42478;SDS011;28110;47.080;9.476;2023-05-07T08:30:36;1.17;;;0.85;;
42478;SDS011;28110;47.080;9.476;2023-05-07T08:33:02;3.03;;;1.00;;
42478;SDS011;28110;47.080;9.476;2023-05-07T08:35:28;1.30;;;0.90;;
42478;SDS011;28110;47.080;9.476;2023-05-07T08:37:53;1.37;;;1.10;;
42478;SDS011;28110;47.080;9.476;2023-05-07T08:40:20;1.05;;;0.95;;
42478;SDS011;28110;47.080;9.476;2023-05-07T08:42:49;3.10;;;1.30;;
42478;SDS011;28110;47.080;9.476;2023-05-07T08:45:17;5.88;;;1.52;;
42478;SDS011;28110;47.080;9.476;2023-05-07T08:47:52;2.25;;;1.35;;
42478;SDS011;28110;47.080;9.476;2023-05-07T08:50:23;4.13;;;1.40;;
42478;SDS011;28110;47.080;9.476;2023-05-07T08:52:49;2.63;;;1.40;;
42478;SDS011;28110;47.080;9.476;2023-05-07T08:55:15;3.83;;;1.50;;
42478;SDS011;28110;47.080;9.476;2023-05-07T08:57:41;1.75;;;1.30;;
42478;SDS011;28110;47.080;9.476;2023-05-07T09:00:06;2.10;;;1.20;;
42478;SDS011;28110;47.080;9.476;2023-05-07T09:02:34;1.40;;;1.30;;
42478;SDS011;28110;47.080;9.476;2023-05-07T09:05:01;3.05;;;1.30;;
42478;SDS011;28110;47.080;9.476;2023-05-07T09:07:27;4.07;;;1.30;;
42478;SDS011;28110;47.080;9.476;2023-05-07T09:09:52;2.53;;;1.20;;
42478;SDS011;28110;47.080;9.476;2023-05-07T09:12:20;3.05;;;1.52;;
42478;SDS011;28110;47.080;9.476;2023-05-07T09:14:46;2.53;;;1.20;;
42478;SDS011;28110;47.080;9.476;2023-05-07T09:17:12;3.83;;;1.50;;
42478;SDS011;28110;47.080;9.476;2023-05-07T09:19:38;3.58;;;1.40;;
42478;SDS011;28110;47.080;9.476;2023-05-07T09:22:04;3.90;;;1.10;;
42478;SDS011;28110;47.080;9.476;2023-05-07T09:24:32;1.90;;;1.00;;
42478;SDS011;28110;47.080;9.476;2023-05-07T09:27:02;2.55;;;1.23;;
42478;SDS011;28110;47.080;9.476;2023-05-07T09:29:29;3.10;;;1.00;;
42478;SDS011;28110;47.080;9.476;2023-05-07T09:31:57;3.40;;;1.33;;
42478;SDS011;28110;47.080;9.476;2023-05-07T09:34:23;3.03;;;1.30;;
42478;SDS011;28110;47.080;9.476;2023-05-07T09:36:48;3.23;;;1.30;;
42478;SDS011;28110;47.080;9.476;2023-05-07T09:39:15;2.78;;;1.60;;
42478;SDS011;28110;47.080;9.476;2023-05-07T09:41:44;2.67;;;1.40;;
42478;SDS011;28110;47.080;9.476;2023-05-07T09:44:10;2.55;;;1.50;;
42478;SDS011;28110;47.080;9.476;2023-05-07T09:46:36;6.50;;;1.70;;
42478;SDS011;28110;47.080;9.476;2023-05-07T09:49:03;3.72;;;1.30;;
42478;SDS011;28110;47.080;9.476;2023-05-07T09:51:36;3.25;;;1.63;;
42478;SDS011;28110;47.080;9.476;2023-05-07T09:54:06;2.63;;;1.52;;
42478;SDS011;28110;47.080;9.476;2023-05-07T09:56:32;2.37;;;1.40;;
42478;SDS011;28110;47.080;9.476;2023-05-07T09:58:59;2.95;;;1.33;;
42478;SDS011;28110;47.080;9.476;2023-05-07T10:01:25;1.98;;;1.30;;
42478;SDS011;28110;47.080;9.476;2023-05-07T10:03:52;3.13;;;1.60;;
42478;SDS011;28110;47.080;9.476;2023-05-07T10:06:23;7.90;;;1.40;;
42478;SDS011;28110;47.080;9.476;2023-05-07T10:08:50;5.47;;;1.43;;
42478;SDS011;28110;47.080;9.476;2023-05-07T10:11:16;3.70;;;1.40;;
42478;SDS011;28110;47.080;9.476;2023-05-07T10:13:43;2.33;;;1.42;;
42478;SDS011;28110;47.080;9.476;2023-05-07T10:16:11;3.80;;;1.40;;
42478;SDS011;28110;47.080;9.476;2023-05-07T10:18:37;2.92;;;1.15;;
42478;SDS011;28110;47.080;9.476;2023-05-07T10:21:08;18.63;;;2.00;;
42478;SDS011;28110;47.080;9.476;2023-05-07T10:23:39;1.58;;;1.38;;
42478;SDS011;28110;47.080;9.476;2023-05-07T10:26:06;1.42;;;1.20;;
42478;SDS011;28110;47.080;9.476;2023-05-07T10:28:36;3.47;;;1.20;;
42478;SDS011;28110;47.080;9.476;2023-05-07T10:31:11;4.65;;;1.50;;
42478;SDS011;28110;47.080;9.476;2023-05-07T10:33:48;1.90;;;1.23;;
42478;SDS011;28110;47.080;9.476;2023-05-07T10:36:17;2.95;;;1.13;;
42478;SDS011;28110;47.080;9.476;2023-05-07T10:38:44;3.45;;;1.45;;
42478;SDS011;28110;47.080;9.476;2023-05-07T10:41:11;2.08;;;1.25;;
42478;SDS011;28110;47.080;9.476;2023-05-07T10:43:38;2.33;;;1.20;;
42478;SDS011;28110;47.080;9.476;2023-05-07T10:51:28;1.95;;;1.00;;
42478;SDS011;28110;47.080;9.476;2023-05-07T10:56:36;2.58;;;1.20;;
42478;SDS011;28110;47.080;9.476;2023-05-07T11:04:20;2.70;;;1.05;;
42478;SDS011;28110;47.080;9.476;2023-05-07T11:15:00;1.65;;;1.20;;
42478;SDS011;28110;47.080;9.476;2023-05-07T11:17:30;1.45;;;1.08;;
42478;SDS011;28110;47.080;9.476;2023-05-07T11:19:56;1.17;;;0.80;;
42478;SDS011;28110;47.080;9.476;2023-05-07T11:25:01;9.30;;;1.20;;
42478;SDS011;28110;47.080;9.476;2023-05-07T11:27:28;1.92;;;1.20;;
42478;SDS011;28110;47.080;9.476;2023-05-07T11:29:54;1.30;;;0.93;;
42478;SDS011;28110;47.080;9.476;2023-05-07T11:32:27;1.67;;;1.20;;
42478;SDS011;28110;47.080;9.476;2023-05-07T11:34:54;3.45;;;1.30;;
42478;SDS011;28110;47.080;9.476;2023-05-07T11:37:21;1.98;;;1.10;;
42478;SDS011;28110;47.080;9.476;2023-05-07T11:39:48;3.72;;;1.38;;
42478;SDS011;28110;47.080;9.476;2023-05-07T11:42:30;1.83;;;1.30;;
42478;SDS011;28110;47.080;9.476;2023-05-07T11:44:58;2.28;;;1.10;;
42478;SDS011;28110;47.080;9.476;2023-05-07T11:47:23;1.95;;;1.10;;
42478;SDS011;28110;47.080;9.476;2023-05-07T11:49:53;1.88;;;1.15;;
42478;SDS011;28110;47.080;9.476;2023-05-07T11:52:20;2.13;;;1.17;;
42478;SDS011;28110;47.080;9.476;2023-05-07T11:54:54;1.52;;;1.05;;
42478;SDS011;28110;47.080;9.476;2023-05-07T11:57:21;4.10;;;1.05;;
42478;SDS011;28110;47.080;9.476;2023-05-07T11:59:47;2.90;;;1.23;;
42478;SDS011;28110;47.080;9.476;2023-05-07T12:02:15;1.80;;;0.93;;
42478;SDS011;28110;47.080;9.476;2023-05-07T12:04:42;1.98;;;1.15;;
42478;SDS011;28110;47.080;9.476;2023-05-07T12:07:14;1.67;;;1.08;;
42478;SDS011;28110;47.080;9.476;2023-05-07T12:09:41;3.78;;;1.10;;
42478;SDS011;28110;47.080;9.476;2023-05-07T12:12:07;2.30;;;1.30;;
42478;SDS011;28110;47.080;9.476;2023-05-07T12:14:32;1.42;;;0.98;;
42478;SDS011;28110;47.080;9.476;2023-05-07T12:17:02;1.10;;;1.00;;
42478;SDS011;28110;47.080;9.476;2023-05-07T12:19:29;1.90;;;1.05;;
42478;SDS011;28110;47.080;9.476;2023-05-07T12:21:55;3.07;;;1.20;;
42478;SDS011;28110;47.080;9.476;2023-05-07T12:24:22;1.92;;;1.17;;
42478;SDS011;28110;47.080;9.476;2023-05-07T12:26:47;2.65;;;1.00;;
42478;SDS011;28110;47.080;9.476;2023-05-07T12:29:13;4.43;;;1.20;;
42478;SDS011;28110;47.080;9.476;2023-05-07T12:31:42;1.90;;;1.30;;
42478;SDS011;28110;47.080;9.476;2023-05-07T12:34:08;1.23;;;1.00;;
42478;SDS011;28110;47.080;9.476;2023-05-07T12:36:36;2.37;;;1.10;;
42478;SDS011;28110;47.080;9.476;2023-05-07T12:39:04;2.05;;;1.13;;
42478;SDS011;28110;47.080;9.476;2023-05-07T12:41:51;1.63;;;1.10;;
42478;SDS011;28110;47.080;9.476;2023-05-07T12:44:24;5.07;;;1.30;;
42478;SDS011;28110;47.080;9.476;2023-05-07T12:46:54;2.70;;;1.25;;
42478;SDS011;28110;47.080;9.476;2023-05-07T12:49:19;1.40;;;1.17;;
42478;SDS011;28110;47.080;9.476;2023-05-07T12:51:46;2.53;;;1.40;;
42478;SDS011;28110;47.080;9.476;2023-05-07T12:54:13;2.25;;;1.20;;
42478;SDS011;28110;47.080;9.476;2023-05-07T12:56:59;2.58;;;1.17;;
42478;SDS011;28110;47.080;9.476;2023-05-07T12:59:41;1.05;;;0.90;;
42478;SDS011;28110;47.080;9.476;2023-05-07T13:02:07;2.28;;;1.23;;
42478;SDS011;28110;47.080;9.476;2023-05-07T13:04:34;1.30;;;1.17;;
42478;SDS011;28110;47.080;9.476;2023-05-07T13:07:00;2.53;;;1.02;;
42478;SDS011;28110;47.080;9.476;2023-05-07T13:09:26;1.60;;;1.00;;
42478;SDS011;28110;47.080;9.476;2023-05-07T13:11:53;2.92;;;1.17;;
42478;SDS011;28110;47.080;9.476;2023-05-07T13:14:19;1.20;;;1.10;;
42478;SDS011;28110;47.080;9.476;2023-05-07T13:16:45;5.00;;;1.30;;
42478;SDS011;28110;47.080;9.476;2023-05-07T13:19:11;3.00;;;1.33;;
42478;SDS011;28110;47.080;9.476;2023-05-07T13:21:37;1.15;;;1.00;;
42478;SDS011;28110;47.080;9.476;2023-05-07T13:24:06;2.63;;;1.20;;
42478;SDS011;28110;47.080;9.476;2023-05-07T13:26:31;2.33;;;1.30;;
42478;SDS011;28110;47.080;9.476;2023-05-07T13:28:57;1.67;;;1.10;;
42478;SDS011;28110;47.080;9.476;2023-05-07T13:31:23;1.80;;;1.30;;
42478;SDS011;28110;47.080;9.476;2023-05-07T13:33:49;2.40;;;0.97;;
42478;SDS011;28110;47.080;9.476;2023-05-07T13:36:15;5.38;;;1.17;;
42478;SDS011;28110;47.080;9.476;2023-05-07T13:38:40;1.73;;;1.20;;
42478;SDS011;28110;47.080;9.476;2023-05-07T13:41:06;2.40;;;1.27;;
42478;SDS011;28110;47.080;9.476;2023-05-07T13:43:31;2.63;;;1.00;;
42478;SDS011;28110;47.080;9.476;2023-05-07T13:45:58;1.30;;;1.10;;
42478;SDS011;28110;47.080;9.476;2023-05-07T13:48:24;2.80;;;1.23;;
42478;SDS011;28110;47.080;9.476;2023-05-07T13:50:49;2.58;;;1.20;;
42478;SDS011;28110;47.080;9.476;2023-05-07T13:53:15;4.40;;;1.70;;
42478;SDS011;28110;47.080;9.476;2023-05-07T13:55:43;2.78;;;1.20;;
42478;SDS011;28110;47.080;9.476;2023-05-07T13:58:09;1.25;;;1.10;;
42478;SDS011;28110;47.080;9.476;2023-05-07T14:00:34;2.67;;;1.20;;
42478;SDS011;28110;47.080;9.476;2023-05-07T14:03:00;1.67;;;0.93;;
42478;SDS011;28110;47.080;9.476;2023-05-07T14:05:26;2.17;;;0.80;;
42478;SDS011;28110;47.080;9.476;2023-05-07T14:07:52;1.25;;;1.00;;
42478;SDS011;28110;47.080;9.476;2023-05-07T14:10:19;2.88;;;1.00;;
42478;SDS011;28110;47.080;9.476;2023-05-07T14:12:45;2.40;;;1.10;;
42478;SDS011;28110;47.080;9.476;2023-05-07T14:15:11;1.98;;;0.80;;
42478;SDS011;28110;47.080;9.476;2023-05-07T14:17:36;1.20;;;1.10;;
42478;SDS011;28110;47.080;9.476;2023-05-07T14:20:02;1.15;;;1.00;;
42478;SDS011;28110;47.080;9.476;2023-05-07T14:22:28;1.98;;;1.02;;
42478;SDS011;28110;47.080;9.476;2023-05-07T14:24:54;3.33;;;1.30;;
42478;SDS011;28110;47.080;9.476;2023-05-07T14:27:19;1.77;;;1.00;;
42478;SDS011;28110;47.080;9.476;2023-05-07T14:29:45;1.30;;;1.00;;
42478;SDS011;28110;47.080;9.476;2023-05-07T14:32:15;2.75;;;1.02;;
42478;SDS011;28110;47.080;9.476;2023-05-07T14:34:44;4.47;;;1.10;;
42478;SDS011;28110;47.080;9.476;2023-05-07T14:37:10;4.75;;;1.10;;
42478;SDS011;28110;47.080;9.476;2023-05-07T14:39:36;2.28;;;1.25;;
42478;SDS011;28110;47.080;9.476;2023-05-07T14:42:02;2.90;;;1.43;;
42478;SDS011;28110;47.080;9.476;2023-05-07T14:44:27;1.33;;;1.00;;
42478;SDS011;28110;47.080;9.476;2023-05-07T14:46:53;2.80;;;1.20;;
42478;SDS011;28110;47.080;9.476;2023-05-07T14:49:19;1.80;;;1.15;;
42478;SDS011;28110;47.080;9.476;2023-05-07T14:51:45;3.53;;;1.10;;
42478;SDS011;28110;47.080;9.476;2023-05-07T14:54:12;2.88;;;1.30;;
42478;SDS011;28110;47.080;9.476;2023-05-07T14:56:38;3.33;;;1.02;;
42478;SDS011;28110;47.080;9.476;2023-05-07T14:59:04;2.95;;;1.30;;
42478;SDS011;28110;47.080;9.476;2023-05-07T15:01:30;2.33;;;1.40;;
42478;SDS011;28110;47.080;9.476;2023-05-07T15:03:55;2.15;;;1.10;;
42478;SDS011;28110;47.080;9.476;2023-05-07T15:06:21;1.17;;;1.07;;
42478;SDS011;28110;47.080;9.476;2023-05-07T15:08:47;2.53;;;1.30;;
42478;SDS011;28110;47.080;9.476;2023-05-07T15:11:13;1.30;;;1.10;;